Time;durP1;ratioP1;P1;durP2;ratioP2;P2;SDS_P1;SDS_P2;PMS_P1;PMS_P2;Temp;Humidity;BMP_temperature;BMP_pressure;BME280_temperature;BME280_humidity;BME280_pressure;Samples;Min_cycle;Max_cycle;Signal;HPM_P1;HPM_P2
2021/10/19 00:01:49;;;;;;;32.57;29.87;;;;;;;;;;5093438;28;20415;-86
2021/10/19 00:04:16;;;;;;;32.70;29.80;;;;;;;;;;5094611;28;20832;-86
2021/10/19 00:06:43;;;;;;;33.13;30.33;;;;;;;;;;5094366;28;20487;-85
2021/10/19 00:09:12;;;;;;;32.50;29.80;;;;;;;;;;5094409;28;20455;-86
2021/10/19 00:11:40;;;;;;;32.67;29.70;;;;;;;;;;5094132;28;20970;-85
2021/10/19 00:14:07;;;;;;;34.40;31.60;;;;;;;;;;5094474;28;20443;-84
2021/10/19 00:16:35;;;;;;;33.93;31.03;;;;;;;;;;5093269;28;20407;-85
2021/10/19 00:19:04;;;;;;;33.63;30.63;;;;;;;;;;5094115;28;20431;-85
2021/10/19 00:21:31;;;;;;;34.70;31.20;;;;;;;;;;5094307;28;20827;-85
2021/10/19 00:23:58;;;;;;;32.40;29.57;;;;;;;;;;5094105;28;20410;-85
2021/10/19 00:26:27;;;;;;;34.40;31.40;;;;;;;;;;5092887;28;20813;-84
2021/10/19 00:28:55;;;;;;;33.97;31.07;;;;;;;;;;5094026;28;20431;-86
2021/10/19 00:31:22;;;;;;;32.80;30.13;;;;;;;;;;5094057;28;20422;-85
2021/10/19 00:33:49;;;;;;;32.03;29.33;;;;;;;;;;5094050;28;20773;-85
2021/10/19 00:36:17;;;;;;;33.13;30.40;;;;;;;;;;5094255;28;20445;-86
2021/10/19 00:38:44;;;;;;;34.00;31.00;;;;;;;;;;5093752;28;20455;-86
2021/10/19 00:41:12;;;;;;;33.50;30.67;;;;;;;;;;5094312;28;20444;-85
2021/10/19 00:43:42;;;;;;;32.73;30.03;;;;;;;;;;5093875;28;20402;-86
2021/10/19 00:46:14;;;;;;;33.37;30.40;;;;;;;;;;5093827;28;20431;-85
2021/10/19 00:48:42;;;;;;;35.30;32.20;;;;;;;;;;5093735;28;20437;-85
2021/10/19 00:51:10;;;;;;;36.50;33.53;;;;;;;;;;5093618;28;20419;-85
2021/10/19 00:53:37;;;;;;;33.40;30.50;;;;;;;;;;5093667;28;20456;-86
2021/10/19 00:56:07;;;;;;;33.03;30.20;;;;;;;;;;5092222;28;20945;-86
2021/10/19 00:58:35;;;;;;;33.93;30.93;;;;;;;;;;5093609;28;20483;-85
2021/10/19 01:01:04;;;;;;;34.17;31.07;;;;;;;;;;5093774;28;20531;-85
2021/10/19 01:03:32;;;;;;;34.10;30.87;;;;;;;;;;5093999;28;20437;-85
2021/10/19 01:06:00;;;;;;;33.53;30.60;;;;;;;;;;5094228;28;20403;-85
2021/10/19 01:08:27;;;;;;;32.73;30.10;;;;;;;;;;5094050;28;20423;-85
2021/10/19 01:10:55;;;;;;;32.73;30.13;;;;;;;;;;5093483;28;20473;-87
2021/10/19 01:13:22;;;;;;;34.50;31.43;;;;;;;;;;5093841;28;20558;-86
2021/10/19 01:15:50;;;;;;;32.97;30.17;;;;;;;;;;5093365;28;20430;-85
2021/10/19 01:18:19;;;;;;;32.63;29.80;;;;;;;;;;5093483;28;20428;-85
2021/10/19 01:20:48;;;;;;;33.63;30.73;;;;;;;;;;5093737;28;20419;-84
2021/10/19 01:23:16;;;;;;;35.47;32.17;;;;;;;;;;5094023;28;20466;-85
2021/10/19 01:25:45;;;;;;;34.70;31.80;;;;;;;;;;5092406;28;20854;-85
2021/10/19 01:28:12;;;;;;;34.90;31.73;;;;;;;;;;5093405;28;20488;-85
2021/10/19 01:30:43;;;;;;;34.77;31.57;;;;;;;;;;5093532;28;20441;-85
2021/10/19 01:33:11;;;;;;;33.97;30.90;;;;;;;;;;5093147;28;20447;-86
2021/10/19 01:35:39;;;;;;;34.93;32.10;;;;;;;;;;5093530;28;20433;-86
2021/10/19 01:38:11;;;;;;;34.50;31.10;;;;;;;;;;5095935;28;20419;-86
2021/10/19 01:40:38;;;;;;;35.00;32.00;;;;;;;;;;5097270;28;20440;-86
2021/10/19 01:43:09;;;;;;;33.03;30.23;;;;;;;;;;5097199;28;20435;-86
2021/10/19 01:45:36;;;;;;;34.47;31.47;;;;;;;;;;5096590;28;20418;-85
2021/10/19 01:48:04;;;;;;;34.23;31.20;;;;;;;;;;5096627;28;20484;-85
2021/10/19 01:50:31;;;;;;;35.57;32.50;;;;;;;;;;5096905;28;20467;-85
2021/10/19 01:53:00;;;;;;;34.03;31.20;;;;;;;;;;5096916;28;20419;-85
2021/10/19 01:55:29;;;;;;;33.70;30.90;;;;;;;;;;5096801;28;20415;-85
2021/10/19 01:57:56;;;;;;;34.03;31.13;;;;;;;;;;5096120;28;20847;-85
2021/10/19 02:00:24;;;;;;;35.10;32.10;;;;;;;;;;5095496;28;20445;-85
2021/10/19 02:02:51;;;;;;;35.47;32.57;;;;;;;;;;5096982;28;20440;-85
2021/10/19 02:05:18;;;;;;;33.80;30.93;;;;;;;;;;5096622;28;20460;-86
2021/10/19 02:07:46;;;;;;;33.93;30.67;;;;;;;;;;5096489;28;20466;-86
2021/10/19 02:10:14;;;;;;;32.37;29.83;;;;;;;;;;5096230;28;20442;-85
2021/10/19 02:12:43;;;;;;;33.17;30.27;;;;;;;;;;5096348;28;20454;-85
2021/10/19 02:15:11;;;;;;;35.63;32.53;;;;;;;;;;5096418;28;20426;-86
2021/10/19 02:17:39;;;;;;;34.50;31.53;;;;;;;;;;5095024;28;20531;-85
2021/10/19 02:20:08;;;;;;;33.90;31.00;;;;;;;;;;5095059;28;20419;-85
2021/10/19 02:22:36;;;;;;;33.30;30.50;;;;;;;;;;5095261;28;20443;-85
2021/10/19 02:25:03;;;;;;;33.60;31.00;;;;;;;;;;5096668;28;20437;-85
2021/10/19 02:27:31;;;;;;;33.80;30.90;;;;;;;;;;5095855;28;20450;-85
2021/10/19 02:29:59;;;;;;;33.20;30.30;;;;;;;;;;5096284;28;20437;-85
2021/10/19 02:32:27;;;;;;;34.40;31.60;;;;;;;;;;5095726;28;20412;-85
2021/10/19 02:34:54;;;;;;;31.17;28.63;;;;;;;;;;5095938;28;20829;-85
2021/10/19 02:37:22;;;;;;;32.43;29.63;;;;;;;;;;5095689;28;20415;-85
2021/10/19 02:39:49;;;;;;;32.40;29.80;;;;;;;;;;5095992;28;20767;-84
2021/10/19 02:42:16;;;;;;;32.67;29.87;;;;;;;;;;5095641;28;20439;-85
2021/10/19 02:44:44;;;;;;;31.53;29.10;;;;;;;;;;5095614;28;20918;-85
2021/10/19 02:47:12;;;;;;;33.10;30.33;;;;;;;;;;5095839;28;20469;-85
2021/10/19 02:49:40;;;;;;;33.67;30.77;;;;;;;;;;5094605;28;20480;-85
2021/10/19 02:52:07;;;;;;;33.20;30.20;;;;;;;;;;5095694;28;20420;-85
2021/10/19 02:54:36;;;;;;;33.67;30.80;;;;;;;;;;5095727;28;20448;-85
2021/10/19 02:57:04;;;;;;;32.50;29.90;;;;;;;;;;5094705;28;20463;-85
2021/10/19 02:59:31;;;;;;;32.70;30.10;;;;;;;;;;5095336;28;20404;-85
2021/10/19 03:01:59;;;;;;;32.67;29.70;;;;;;;;;;5095642;28;20886;-84
2021/10/19 03:04:27;;;;;;;33.40;30.33;;;;;;;;;;5095188;28;20408;-84
2021/10/19 03:06:55;;;;;;;32.50;29.70;;;;;;;;;;5095421;28;20445;-85
2021/10/19 03:09:22;;;;;;;32.77;30.17;;;;;;;;;;5095369;28;20461;-85
2021/10/19 03:11:50;;;;;;;35.57;32.50;;;;;;;;;;5094012;28;20503;-85
2021/10/19 03:14:17;;;;;;;33.63;30.90;;;;;;;;;;5095409;28;20419;-85
2021/10/19 03:16:45;;;;;;;30.57;28.27;;;;;;;;;;5093941;28;20477;-85
2021/10/19 03:19:12;;;;;;;32.80;30.20;;;;;;;;;;5094910;28;20437;-85
2021/10/19 03:21:41;;;;;;;32.07;29.33;;;;;;;;;;5094723;28;20439;-85
2021/10/19 03:24:08;;;;;;;31.27;28.87;;;;;;;;;;5093519;28;20445;-84
2021/10/19 03:26:36;;;;;;;31.43;28.97;;;;;;;;;;5094656;28;20453;-85
2021/10/19 03:29:03;;;;;;;29.93;27.70;;;;;;;;;;5095043;28;20480;-85
2021/10/19 03:31:35;;;;;;;33.40;30.70;;;;;;;;;;5094768;28;20433;-85
2021/10/19 03:34:02;;;;;;;32.43;29.83;;;;;;;;;;5094807;28;20813;-86
2021/10/19 03:36:30;;;;;;;33.10;30.23;;;;;;;;;;5094776;28;20490;-85
2021/10/19 03:38:59;;;;;;;32.47;29.77;;;;;;;;;;5094412;28;20407;-85
2021/10/19 03:41:26;;;;;;;32.67;29.73;;;;;;;;;;5094599;28;20417;-85
2021/10/19 03:43:53;;;;;;;30.87;28.57;;;;;;;;;;5094318;28;20423;-85
2021/10/19 03:46:21;;;;;;;32.70;30.00;;;;;;;;;;5094694;28;20437;-85
2021/10/19 03:48:48;;;;;;;31.53;28.93;;;;;;;;;;5094348;28;20463;-85
2021/10/19 03:51:16;;;;;;;32.83;30.13;;;;;;;;;;5094099;28;20419;-84
2021/10/19 03:53:43;;;;;;;29.93;27.60;;;;;;;;;;5094170;28;20523;-82
2021/10/19 03:56:12;;;;;;;31.80;29.40;;;;;;;;;;5094412;28;20444;-84
2021/10/19 03:58:39;;;;;;;30.60;28.00;;;;;;;;;;5094401;28;20808;-84
2021/10/19 04:01:07;;;;;;;31.80;29.37;;;;;;;;;;5094124;28;20436;-84
2021/10/19 04:03:34;;;;;;;30.57;28.37;;;;;;;;;;5094090;28;20433;-83
2021/10/19 04:06:02;;;;;;;32.23;29.37;;;;;;;;;;5093212;28;20407;-84
2021/10/19 04:08:29;;;;;;;30.60;28.33;;;;;;;;;;5093770;28;20487;-83
2021/10/19 04:10:57;;;;;;;30.40;28.07;;;;;;;;;;5093753;28;20481;-86
2021/10/19 04:13:26;;;;;;;30.60;28.10;;;;;;;;;;5093055;28;20419;-84
2021/10/19 04:15:53;;;;;;;30.87;28.70;;;;;;;;;;5094221;28;20433;-86
2021/10/19 04:18:20;;;;;;;29.93;27.83;;;;;;;;;;5094145;28;20452;-86
2021/10/19 04:20:48;;;;;;;31.83;29.33;;;;;;;;;;5094106;28;20420;-89
2021/10/19 04:23:15;;;;;;;30.30;27.73;;;;;;;;;;5094360;28;20456;-87
2021/10/19 04:25:43;;;;;;;30.63;27.97;;;;;;;;;;5094465;28;20448;-86
2021/10/19 04:28:10;;;;;;;31.40;28.83;;;;;;;;;;5093740;28;20464;-87
2021/10/19 04:30:39;;;;;;;30.70;28.30;;;;;;;;;;5095316;28;20445;-87
2021/10/19 04:33:07;;;;;;;33.10;30.50;;;;;;;;;;5093695;28;20861;-87
2021/10/19 04:35:34;;;;;;;30.30;27.60;;;;;;;;;;5094578;28;20434;-88
2021/10/19 04:38:01;;;;;;;33.70;31.00;;;;;;;;;;5093882;28;20423;-87
2021/10/19 04:40:29;;;;;;;34.60;31.70;;;;;;;;;;5093893;28;20432;-86
2021/10/19 04:42:56;;;;;;;34.80;32.00;;;;;;;;;;5094069;28;20416;-86
2021/10/19 04:45:24;;;;;;;33.50;30.70;;;;;;;;;;5093828;28;20436;-87
2021/10/19 04:47:53;;;;;;;32.27;29.33;;;;;;;;;;5092567;28;21005;-86
2021/10/19 04:50:20;;;;;;;31.63;29.23;;;;;;;;;;5094059;28;20427;-86
2021/10/19 04:52:47;;;;;;;31.67;29.07;;;;;;;;;;5093640;28;20415;-94
2021/10/19 04:55:15;;;;;;;33.40;30.13;;;;;;;;;;5092683;28;20415;-87
2021/10/19 04:57:42;;;;;;;32.37;29.57;;;;;;;;;;5093435;28;20454;-85
2021/10/19 05:00:10;;;;;;;31.63;29.33;;;;;;;;;;5093332;28;20448;-86
2021/10/19 05:02:43;;;;;;;30.87;28.37;;;;;;;;;;5093013;28;20424;-86
2021/10/19 05:05:12;;;;;;;31.40;28.90;;;;;;;;;;5094003;28;20465;-86
2021/10/19 05:07:40;;;;;;;33.67;31.00;;;;;;;;;;5092465;28;20971;-86
2021/10/19 05:10:07;;;;;;;32.67;30.20;;;;;;;;;;5094013;28;20404;-86
2021/10/19 05:12:35;;;;;;;31.30;29.00;;;;;;;;;;5095217;28;20458;-86
2021/10/19 05:15:02;;;;;;;31.97;29.53;;;;;;;;;;5097662;28;20477;-86
2021/10/19 05:17:30;;;;;;;31.47;29.07;;;;;;;;;;5097465;28;20881;-86
2021/10/19 05:19:57;;;;;;;31.60;29.10;;;;;;;;;;5097471;28;20930;-85
2021/10/19 05:22:26;;;;;;;30.07;27.53;;;;;;;;;;5097500;28;20411;-86
2021/10/19 05:24:54;;;;;;;29.77;27.50;;;;;;;;;;5097410;28;20932;-86
2021/10/19 05:27:21;;;;;;;31.43;29.10;;;;;;;;;;5095865;28;20423;-85
2021/10/19 05:29:48;;;;;;;31.73;29.13;;;;;;;;;;5097282;28;20423;-92
2021/10/19 05:32:16;;;;;;;29.43;27.20;;;;;;;;;;5097441;28;20426;-85
2021/10/19 05:34:44;;;;;;;31.37;28.97;;;;;;;;;;5097107;28;20448;-85
2021/10/19 05:37:12;;;;;;;31.20;28.53;;;;;;;;;;5096385;28;20922;-85
2021/10/19 05:39:41;;;;;;;31.13;28.60;;;;;;;;;;5097113;28;20906;-85
2021/10/19 05:42:08;;;;;;;29.93;27.70;;;;;;;;;;5096761;28;20424;-85
2021/10/19 05:44:36;;;;;;;29.40;27.00;;;;;;;;;;5096742;28;20432;-85
2021/10/19 05:47:03;;;;;;;29.83;27.63;;;;;;;;;;5096891;28;20433;-84
2021/10/19 05:49:31;;;;;;;31.20;28.70;;;;;;;;;;5096961;28;20451;-85
2021/10/19 05:51:58;;;;;;;30.67;28.30;;;;;;;;;;5096816;28;20414;-85
2021/10/19 05:54:26;;;;;;;31.57;28.77;;;;;;;;;;5096981;28;20440;-85
2021/10/19 05:56:56;;;;;;;30.20;28.00;;;;;;;;;;5096305;28;20505;-85
2021/10/19 05:59:23;;;;;;;31.30;28.90;;;;;;;;;;5095459;28;20441;-84
2021/10/19 06:01:51;;;;;;;30.67;28.27;;;;;;;;;;5096244;28;20429;-85
2021/10/19 06:04:18;;;;;;;30.67;28.17;;;;;;;;;;5096397;28;20444;-85
2021/10/19 06:06:53;;;;;;;32.17;29.47;;;;;;;;;;5096490;28;20429;-84
2021/10/19 06:09:20;;;;;;;30.97;28.60;;;;;;;;;;5095940;28;20882;-84
2021/10/19 06:11:48;;;;;;;31.50;28.93;;;;;;;;;;5096331;28;20598;-85
2021/10/19 06:14:17;;;;;;;31.10;28.40;;;;;;;;;;5096691;28;20403;-85
2021/10/19 06:16:44;;;;;;;29.70;27.47;;;;;;;;;;5096368;28;20541;-85
2021/10/19 06:19:12;;;;;;;31.07;28.60;;;;;;;;;;5096225;28;20435;-86
2021/10/19 06:21:40;;;;;;;30.50;28.00;;;;;;;;;;5096247;28;20457;-85
2021/10/19 06:24:07;;;;;;;29.13;26.93;;;;;;;;;;5094542;28;20446;-85
2021/10/19 06:26:36;;;;;;;31.23;28.83;;;;;;;;;;5096022;28;20407;-85
2021/10/19 06:29:04;;;;;;;31.40;29.07;;;;;;;;;;5096163;28;20476;-86
2021/10/19 06:31:33;;;;;;;30.30;28.10;;;;;;;;;;5096569;28;20399;-86
2021/10/19 06:34:00;;;;;;;32.93;29.73;;;;;;;;;;5096361;28;20514;-85
2021/10/19 06:36:28;;;;;;;32.17;29.70;;;;;;;;;;5095968;28;20433;-85
2021/10/19 06:38:55;;;;;;;31.67;29.23;;;;;;;;;;5094668;28;20870;-84
2021/10/19 06:41:23;;;;;;;30.27;28.07;;;;;;;;;;5095739;28;20453;-85
2021/10/19 06:43:50;;;;;;;30.07;27.87;;;;;;;;;;5095422;28;20416;-86
2021/10/19 06:46:18;;;;;;;29.93;27.43;;;;;;;;;;5095888;28;20426;-85
2021/10/19 06:48:47;;;;;;;31.47;28.97;;;;;;;;;;5095588;28;20484;-83
2021/10/19 06:51:14;;;;;;;32.10;29.53;;;;;;;;;;5095858;28;20422;-85
2021/10/19 06:53:41;;;;;;;32.27;29.20;;;;;;;;;;5095608;28;20421;-84
2021/10/19 06:56:09;;;;;;;31.40;28.77;;;;;;;;;;5094776;28;20418;-90
2021/10/19 06:58:36;;;;;;;31.80;29.40;;;;;;;;;;5095936;28;20476;-88
2021/10/19 07:01:05;;;;;;;29.93;27.70;;;;;;;;;;5095464;28;20437;-90
2021/10/19 07:03:33;;;;;;;31.60;29.20;;;;;;;;;;5095673;28;20441;-83
2021/10/19 07:06:05;;;;;;;31.30;28.70;;;;;;;;;;5095131;28;20433;-85
2021/10/19 07:08:33;;;;;;;32.23;29.53;;;;;;;;;;5095690;28;20472;-86
2021/10/19 07:11:01;;;;;;;30.00;27.77;;;;;;;;;;5094807;28;20435;-85
2021/10/19 07:13:28;;;;;;;29.43;27.13;;;;;;;;;;5095015;28;20437;-85
2021/10/19 07:15:56;;;;;;;29.33;27.10;;;;;;;;;;5094584;28;20418;-84
2021/10/19 07:18:24;;;;;;;29.17;27.23;;;;;;;;;;5095525;28;20471;-87
2021/10/19 07:20:52;;;;;;;30.47;28.00;;;;;;;;;;5095074;28;20404;-85
2021/10/19 07:23:21;;;;;;;29.47;26.90;;;;;;;;;;5095026;28;20448;-87
2021/10/19 07:25:49;;;;;;;28.40;26.30;;;;;;;;;;5095155;28;20996;-85
2021/10/19 07:28:16;;;;;;;28.00;26.10;;;;;;;;;;5094707;28;20445;-86
2021/10/19 07:30:44;;;;;;;29.73;27.03;;;;;;;;;;5095458;28;20935;-87
2021/10/19 07:33:11;;;;;;;28.77;26.77;;;;;;;;;;5095189;28;20491;-85
2021/10/19 07:35:39;;;;;;;28.30;26.37;;;;;;;;;;5094469;28;20441;-86
2021/10/19 07:38:06;;;;;;;27.93;26.17;;;;;;;;;;5094212;28;20429;-85
2021/10/19 07:40:35;;;;;;;26.53;24.73;;;;;;;;;;5094894;28;20433;-85
2021/10/19 07:43:02;;;;;;;26.43;24.63;;;;;;;;;;5094886;28;20437;-86
2021/10/19 07:45:30;;;;;;;28.37;26.27;;;;;;;;;;5094924;28;20437;-86
2021/10/19 07:48:01;;;;;;;27.27;25.50;;;;;;;;;;5095126;28;20733;-87
2021/10/19 07:50:29;;;;;;;27.23;25.37;;;;;;;;;;5095569;28;20561;-86
2021/10/19 07:52:57;;;;;;;27.30;25.50;;;;;;;;;;5094701;28;20468;-84
2021/10/19 07:55:26;;;;;;;27.23;24.93;;;;;;;;;;5094282;28;20419;-84
2021/10/19 07:57:55;;;;;;;28.10;26.20;;;;;;;;;;5093707;28;20986;-84
2021/10/19 08:00:24;;;;;;;26.23;24.37;;;;;;;;;;5094662;28;20445;-85
2021/10/19 08:02:51;;;;;;;25.83;24.17;;;;;;;;;;5094280;28;20996;-85
2021/10/19 08:05:19;;;;;;;27.37;25.33;;;;;;;;;;5094516;28;20434;-84
2021/10/19 08:07:47;;;;;;;26.70;24.90;;;;;;;;;;5092705;28;20441;-83
2021/10/19 08:10:15;;;;;;;26.07;24.47;;;;;;;;;;5094070;28;20484;-85
2021/10/19 08:12:43;;;;;;;25.00;23.50;;;;;;;;;;5094259;28;20429;-86
2021/10/19 08:15:12;;;;;;;25.30;23.70;;;;;;;;;;5094543;28;20437;-85
2021/10/19 08:17:40;;;;;;;24.53;23.03;;;;;;;;;;5094102;28;20448;-85
2021/10/19 08:20:08;;;;;;;24.20;22.63;;;;;;;;;;5093603;28;20498;-85
2021/10/19 08:22:35;;;;;;;23.70;22.27;;;;;;;;;;5093817;28;20433;-85
2021/10/19 08:25:06;;;;;;;24.97;23.17;;;;;;;;;;5094389;28;20436;-85
2021/10/19 08:27:33;;;;;;;25.00;23.60;;;;;;;;;;5093348;28;20420;-84
2021/10/19 08:30:01;;;;;;;24.50;23.00;;;;;;;;;;5093857;28;20455;-84
2021/10/19 08:32:29;;;;;;;24.93;23.43;;;;;;;;;;5093833;28;20452;-83
2021/10/19 08:34:57;;;;;;;25.80;24.17;;;;;;;;;;5093623;28;20412;-84
2021/10/19 08:37:24;;;;;;;23.93;22.53;;;;;;;;;;5094003;28;20437;-83
2021/10/19 08:39:51;;;;;;;25.17;23.73;;;;;;;;;;5094089;28;20445;-83
2021/10/19 08:42:19;;;;;;;26.63;24.80;;;;;;;;;;5093326;28;20491;-84
2021/10/19 08:44:46;;;;;;;24.00;22.50;;;;;;;;;;5093372;28;20444;-82
2021/10/19 08:47:14;;;;;;;25.50;24.00;;;;;;;;;;5094329;28;20449;-83
2021/10/19 08:49:43;;;;;;;24.10;22.70;;;;;;;;;;5097370;28;20840;-83
2021/10/19 08:52:10;;;;;;;25.13;23.63;;;;;;;;;;5097296;28;20449;-82
2021/10/19 08:54:38;;;;;;;26.47;24.83;;;;;;;;;;5097179;28;20441;-82
2021/10/19 08:57:13;;;;;;;25.40;24.00;;;;;;;;;;5097025;28;20489;-83
2021/10/19 08:59:42;;;;;;;27.07;25.37;;;;;;;;;;5097214;28;20483;-82
2021/10/19 09:02:10;;;;;;;26.57;24.77;;;;;;;;;;5097117;28;20412;-82
2021/10/19 09:04:37;;;;;;;27.50;25.70;;;;;;;;;;5095820;28;20420;-84
2021/10/19 09:07:06;;;;;;;31.50;29.10;;;;;;;;;;5097171;28;20461;-83
2021/10/19 09:09:36;;;;;;;29.97;27.73;;;;;;;;;;5095777;28;20484;-82
2021/10/19 09:12:03;;;;;;;30.30;27.80;;;;;;;;;;5096282;28;20494;-83
2021/10/19 09:14:32;;;;;;;29.10;27.00;;;;;;;;;;5097568;28;20425;-85
2021/10/19 09:17:01;;;;;;;33.37;30.70;;;;;;;;;;5097134;28;20478;-84
2021/10/19 09:19:29;;;;;;;31.43;29.00;;;;;;;;;;5096990;28;20495;-84
2021/10/19 09:21:57;;;;;;;31.40;29.00;;;;;;;;;;5097042;28;20440;-84
2021/10/19 09:24:27;;;;;;;30.63;28.40;;;;;;;;;;5096545;28;20436;-84
2021/10/19 09:26:58;;;;;;;31.90;29.40;;;;;;;;;;5096783;28;20866;-85
2021/10/19 09:29:26;;;;;;;30.60;28.33;;;;;;;;;;5096900;28;20960;-85
2021/10/19 09:31:55;;;;;;;31.90;29.60;;;;;;;;;;5096975;28;20486;-85
2021/10/19 09:34:22;;;;;;;33.40;30.70;;;;;;;;;;5097429;28;20544;-85
2021/10/19 09:36:53;;;;;;;32.93;30.33;;;;;;;;;;5096990;28;20949;-84
2021/10/19 09:39:35;;;;;;;33.73;31.13;;;;;;;;;;5096929;28;20415;-85
2021/10/19 09:42:03;;;;;;;33.80;31.20;;;;;;;;;;5096798;28;20415;-85
2021/10/19 09:44:31;;;;;;;33.97;31.40;;;;;;;;;;5096644;28;20436;-85
2021/10/19 09:47:00;;;;;;;31.80;29.20;;;;;;;;;;5096565;28;20432;-84
2021/10/19 09:49:28;;;;;;;35.40;32.33;;;;;;;;;;5096246;28;20468;-85
2021/10/19 09:51:57;;;;;;;31.80;29.30;;;;;;;;;;5095414;28;20444;-85
2021/10/19 09:54:27;;;;;;;32.40;29.90;;;;;;;;;;5096467;28;20437;-85
2021/10/19 09:56:57;;;;;;;33.73;30.97;;;;;;;;;;5096223;28;20555;-84
2021/10/19 09:59:24;;;;;;;32.17;29.67;;;;;;;;;;5096430;28;20473;-85
2021/10/19 10:01:52;;;;;;;33.37;30.57;;;;;;;;;;5096352;28;20437;-85
2021/10/19 10:04:21;;;;;;;34.43;31.63;;;;;;;;;;5096448;28;20412;-85
2021/10/19 10:06:49;;;;;;;34.00;31.33;;;;;;;;;;5096480;28;20453;-84
2021/10/19 10:09:16;;;;;;;31.87;29.30;;;;;;;;;;5096492;28;20469;-85
2021/10/19 10:11:44;;;;;;;32.30;29.60;;;;;;;;;;5095866;28;20444;-85
2021/10/19 10:14:14;;;;;;;31.90;29.40;;;;;;;;;;5096401;28;20412;-85
2021/10/19 10:16:45;;;;;;;31.63;29.23;;;;;;;;;;5095934;27;20493;-84
2021/10/19 10:19:14;;;;;;;31.60;29.40;;;;;;;;;;5095865;28;20411;-84
2021/10/19 10:21:52;;;;;;;32.17;29.67;;;;;;;;;;5095871;28;20428;-84
2021/10/19 10:24:29;;;;;;;30.00;27.67;;;;;;;;;;5095814;28;20440;-83
2021/10/19 10:27:04;;;;;;;30.60;27.80;;;;;;;;;;5095872;28;20437;-84
2021/10/19 10:29:39;;;;;;;31.40;29.07;;;;;;;;;;5095375;28;20447;-83
2021/10/19 10:32:07;;;;;;;30.23;27.93;;;;;;;;;;5096131;28;20415;-87
2021/10/19 10:34:35;;;;;;;29.20;27.00;;;;;;;;;;5095982;28;20437;-85
2021/10/19 10:37:10;;;;;;;26.97;24.97;;;;;;;;;;5095490;28;20444;-84
2021/10/19 10:39:38;;;;;;;30.63;28.33;;;;;;;;;;5095925;28;20441;-84
2021/10/19 10:42:08;;;;;;;31.33;29.00;;;;;;;;;;5095813;28;20907;-84
2021/10/19 10:44:37;;;;;;;28.20;26.10;;;;;;;;;;5095803;28;20477;-84
2021/10/19 10:47:06;;;;;;;29.23;27.10;;;;;;;;;;5095626;28;20930;-85
2021/10/19 10:49:33;;;;;;;31.90;29.30;;;;;;;;;;5095333;28;20456;-85
2021/10/19 10:52:02;;;;;;;29.37;27.40;;;;;;;;;;5095537;28;20419;-85
2021/10/19 10:54:29;;;;;;;30.53;28.23;;;;;;;;;;5095435;28;20934;-85
2021/10/19 10:56:57;;;;;;;28.57;26.47;;;;;;;;;;5095047;28;21031;-85
2021/10/19 10:59:26;;;;;;;28.70;26.60;;;;;;;;;;5095219;28;20434;-85
2021/10/19 11:01:53;;;;;;;28.13;26.03;;;;;;;;;;5096519;28;20414;-95
2021/10/19 11:04:22;;;;;;;27.90;25.90;;;;;;;;;;5094818;28;20416;-83
2021/10/19 11:06:49;;;;;;;28.33;26.37;;;;;;;;;;5095516;28;20452;-85
2021/10/19 11:09:18;;;;;;;29.70;27.60;;;;;;;;;;5094903;28;20411;-85
2021/10/19 11:11:46;;;;;;;27.50;25.40;;;;;;;;;;5094860;28;20466;-85
2021/10/19 11:14:14;;;;;;;29.17;26.67;;;;;;;;;;5093927;28;20429;-85
2021/10/19 11:16:42;;;;;;;28.00;26.00;;;;;;;;;;5095264;28;20423;-84
2021/10/19 11:19:14;;;;;;;29.00;26.80;;;;;;;;;;5095443;28;20467;-86
2021/10/19 11:21:44;;;;;;;30.33;28.10;;;;;;;;;;5095480;28;20411;-85
2021/10/19 11:24:11;;;;;;;27.60;25.80;;;;;;;;;;5095353;28;20423;-86
2021/10/19 11:26:39;;;;;;;26.97;25.07;;;;;;;;;;5095124;28;20449;-86
2021/10/19 11:29:06;;;;;;;27.23;25.33;;;;;;;;;;5095188;28;20457;-86
2021/10/19 11:31:35;;;;;;;27.10;25.00;;;;;;;;;;5095033;28;20451;-86
2021/10/19 11:34:03;;;;;;;27.00;25.30;;;;;;;;;;5095794;28;20433;-88
2021/10/19 11:36:30;;;;;;;29.33;27.40;;;;;;;;;;5095501;28;20427;-87
2021/10/19 11:39:01;;;;;;;25.90;24.10;;;;;;;;;;5094657;28;20421;-88
2021/10/19 11:41:29;;;;;;;26.73;25.13;;;;;;;;;;5095047;28;20496;-89
2021/10/19 11:43:58;;;;;;;23.20;21.87;;;;;;;;;;5095336;28;20444;-88
2021/10/19 11:46:26;;;;;;;30.27;28.00;;;;;;;;;;5094242;28;20431;-89
2021/10/19 11:48:54;;;;;;;23.77;22.20;;;;;;;;;;5095284;28;20772;-89
2021/10/19 11:51:23;;;;;;;26.70;24.73;;;;;;;;;;5095154;28;20467;-89
2021/10/19 11:53:51;;;;;;;22.80;21.50;;;;;;;;;;5093851;28;20527;-89
2021/10/19 11:56:20;;;;;;;23.80;22.50;;;;;;;;;;5095056;28;20792;-89
2021/10/19 11:58:52;;;;;;;22.20;20.90;;;;;;;;;;5094622;28;20949;-87
2021/10/19 12:01:20;;;;;;;25.03;23.53;;;;;;;;;;5094797;28;20780;-88
2021/10/19 12:03:55;;;;;;;26.00;24.40;;;;;;;;;;5094844;28;20404;-88
2021/10/19 12:06:25;;;;;;;24.27;22.97;;;;;;;;;;5094555;28;20448;-88
2021/10/19 12:08:52;;;;;;;24.20;22.90;;;;;;;;;;5094915;28;20411;-87
2021/10/19 12:11:22;;;;;;;24.30;22.87;;;;;;;;;;5094829;28;20528;-88
2021/10/19 12:13:54;;;;;;;24.47;23.27;;;;;;;;;;5094302;28;20411;-88
2021/10/19 12:16:25;;;;;;;24.00;22.80;;;;;;;;;;5094935;28;20411;-88
2021/10/19 12:18:52;;;;;;;25.30;23.90;;;;;;;;;;5094676;28;20940;-88
2021/10/19 12:21:20;;;;;;;24.63;23.30;;;;;;;;;;5094461;28;20775;-88
2021/10/19 12:23:51;;;;;;;24.30;22.80;;;;;;;;;;5094537;28;20436;-87
2021/10/19 12:26:21;;;;;;;26.70;25.40;;;;;;;;;;5094322;28;20436;-86
2021/10/19 12:28:50;;;;;;;25.43;24.13;;;;;;;;;;5094426;28;20444;-88
2021/10/19 12:31:18;;;;;;;26.10;24.73;;;;;;;;;;5093037;28;20567;-88
2021/10/19 12:33:45;;;;;;;27.30;25.80;;;;;;;;;;5094617;28;20445;-88
2021/10/19 12:36:13;;;;;;;27.47;26.17;;;;;;;;;;5094008;28;20411;-88
2021/10/19 12:38:41;;;;;;;26.60;25.40;;;;;;;;;;5094178;28;20509;-88
2021/10/19 12:41:11;;;;;;;34.87;32.97;;;;;;;;;;5094335;28;20434;-88
2021/10/19 12:43:41;;;;;;;29.00;27.60;;;;;;;;;;5093995;28;20444;-88
2021/10/19 12:46:21;;;;;;;29.23;27.50;;;;;;;;;;5093965;28;20420;-86
2021/10/19 12:48:49;;;;;;;29.67;27.93;;;;;;;;;;5093849;28;20436;-88
2021/10/19 12:51:17;;;;;;;30.43;28.93;;;;;;;;;;5094175;28;20447;-88
2021/10/19 12:53:47;;;;;;;27.97;26.67;;;;;;;;;;5094243;28;20439;-87
2021/10/19 12:56:14;;;;;;;31.03;29.37;;;;;;;;;;5094163;28;20415;-87
2021/10/19 12:58:43;;;;;;;32.63;30.30;;;;;;;;;;5093787;28;20488;-88
2021/10/19 13:01:11;;;;;;;33.83;31.57;;;;;;;;;;5094259;28;20437;-88
2021/10/19 13:03:38;;;;;;;32.40;30.43;;;;;;;;;;5094316;28;20419;-90
2021/10/19 13:06:07;;;;;;;33.20;31.10;;;;;;;;;;5093751;28;20404;-89
2021/10/19 13:08:37;;;;;;;34.87;32.53;;;;;;;;;;5093482;28;20444;-89
2021/10/19 13:11:04;;;;;;;33.87;31.67;;;;;;;;;;5093036;28;20496;-90
2021/10/19 13:13:32;;;;;;;31.40;29.80;;;;;;;;;;5093579;28;20445;-89
2021/10/19 13:16:02;;;;;;;32.40;30.67;;;;;;;;;;5092553;28;20404;-88
2021/10/19 13:18:30;;;;;;;35.37;33.33;;;;;;;;;;5093369;28;20416;-88
2021/10/19 13:20:58;;;;;;;36.70;34.50;;;;;;;;;;5092834;28;20869;-88
2021/10/19 13:23:25;;;;;;;34.13;31.97;;;;;;;;;;5093969;28;20445;-89
2021/10/19 13:25:53;;;;;;;33.57;31.87;;;;;;;;;;5094033;28;20457;-89
2021/10/19 13:28:20;;;;;;;39.23;36.87;;;;;;;;;;5094004;28;20920;-88
2021/10/19 13:30:53;;;;;;;33.87;32.17;;;;;;;;;;5094338;28;20965;-87
2021/10/19 13:33:22;;;;;;;34.17;32.20;;;;;;;;;;5095289;28;20469;-88
2021/10/19 13:35:49;;;;;;;35.33;33.27;;;;;;;;;;5097445;28;20408;-88
2021/10/19 13:38:17;;;;;;;34.03;32.10;;;;;;;;;;5097268;28;20415;-89
2021/10/19 13:40:46;;;;;;;34.07;32.07;;;;;;;;;;5097352;28;20414;-89
2021/10/19 13:43:13;;;;;;;35.70;33.80;;;;;;;;;;5097335;28;20411;-88
2021/10/19 13:45:42;;;;;;;34.63;32.83;;;;;;;;;;5097463;28;20416;-89
2021/10/19 13:48:11;;;;;;;34.67;32.33;;;;;;;;;;5097050;28;20437;-88
2021/10/19 13:50:40;;;;;;;34.00;32.10;;;;;;;;;;5096817;28;20484;-88
2021/10/19 13:53:08;;;;;;;35.63;33.70;;;;;;;;;;5097036;28;20424;-87
2021/10/19 13:55:36;;;;;;;32.30;30.50;;;;;;;;;;5095910;28;20434;-88
2021/10/19 13:58:03;;;;;;;32.87;31.00;;;;;;;;;;5096581;28;20471;-86
2021/10/19 14:00:31;;;;;;;33.10;31.40;;;;;;;;;;5097252;28;20912;-87
2021/10/19 14:02:59;;;;;;;33.20;31.37;;;;;;;;;;5097218;28;20430;-86
2021/10/19 14:05:27;;;;;;;31.13;29.33;;;;;;;;;;5096602;28;20455;-87
2021/10/19 14:07:56;;;;;;;33.90;32.10;;;;;;;;;;5095687;28;20423;-85
2021/10/19 14:10:23;;;;;;;33.13;31.43;;;;;;;;;;5096767;28;20462;-86
2021/10/19 14:12:50;;;;;;;34.40;32.40;;;;;;;;;;5097027;28;20449;-87
2021/10/19 14:15:18;;;;;;;34.83;32.80;;;;;;;;;;5096826;28;20432;-86
2021/10/19 14:17:45;;;;;;;38.67;35.93;;;;;;;;;;5096421;28;20537;-86
2021/10/19 14:20:13;;;;;;;34.20;32.10;;;;;;;;;;5095390;28;20431;-87
2021/10/19 14:22:41;;;;;;;34.87;32.67;;;;;;;;;;5096563;28;20420;-86